createdAt,value
2019-04-26T00:00:01.143Z,99473.41
2019-04-26T00:05:07.818Z,99460.66
2019-04-26T00:10:18.100Z,99454.49
2019-04-26T00:15:37.941Z,99450.45
2019-04-26T00:20:42.484Z,99439.67
2019-04-26T00:25:46.851Z,99445.73
2019-04-26T00:30:51.280Z,99443.46
2019-04-26T00:35:55.672Z,99442.95
2019-04-26T00:41:00.114Z,99445.49
2019-04-26T00:46:06.492Z,99436.49
2019-04-26T00:51:10.912Z,99439.69
2019-04-26T00:56:15.933Z,99440.20
2019-04-26T01:01:22.767Z,99434.33
2019-04-26T01:06:28.794Z,99435.65
2019-04-26T01:11:33.194Z,99427.27
2019-04-26T01:16:37.540Z,99423.59
2019-04-26T01:21:45.093Z,99418.96
2019-04-26T01:26:50.421Z,99414.95
2019-04-26T01:32:10.293Z,99403.42
2019-04-26T01:37:14.987Z,99396.44
2019-04-26T01:42:24.361Z,99391.11
2019-04-26T01:47:29.831Z,99385.94
2019-04-26T01:52:34.251Z,99390.75
2019-04-26T01:57:39.609Z,99391.91
2019-04-26T02:02:45.665Z,99383.83
2019-04-26T02:21:29.890Z,99378.45
2019-04-26T02:26:35.309Z,99369.81
2019-04-26T02:31:41.706Z,99383.68
2019-04-26T02:36:57.893Z,99386.51
2019-04-26T02:41:58.154Z,99378.29
2019-04-26T02:47:35.062Z,99368.39
2019-04-26T02:52:44.753Z,99356.33
2019-04-26T02:57:52.232Z,99360.46
2019-04-26T03:02:59.759Z,99373.20
2019-04-26T03:08:06.606Z,99361.52
2019-04-26T03:13:15.623Z,99371.42
2019-04-26T03:18:31.733Z,99375.09
2019-04-26T03:23:57.016Z,99375.47
2019-04-26T03:29:10.342Z,99368.32
2019-04-26T03:34:28.661Z,99366.33
2019-04-26T03:39:40.730Z,99370.84
2019-04-26T03:44:53.130Z,99367.09
2019-04-26T03:50:15.252Z,99362.34
2019-04-26T03:55:30.089Z,99357.75
2019-04-26T04:00:47.576Z,99357.06
2019-04-26T04:05:55.644Z,99355.37
2019-04-26T04:11:03.173Z,99359.83
2019-04-26T04:16:13.800Z,99358.02
2019-04-26T04:21:35.181Z,99361.80
2019-04-26T04:26:49.008Z,99365.19
2019-04-26T04:31:57.317Z,99365.39
2019-04-26T04:37:03.769Z,99361.70
2019-04-26T04:42:29.478Z,99359.76
2019-04-26T04:48:04.115Z,99362.63
2019-04-26T04:53:14.601Z,99375.17
2019-04-26T04:58:37.339Z,99379.83
2019-04-26T05:03:46.951Z,99382.39
2019-04-26T05:09:01.447Z,99380.75
2019-04-26T05:14:31.627Z,99374.39
2019-04-26T05:19:51.185Z,99377.34
2019-04-26T05:25:01.691Z,99380.52
2019-04-26T05:30:13.766Z,99384.76
2019-04-26T05:35:40.569Z,99385.45
2019-04-26T05:41:00.176Z,99380.26
2019-04-26T05:46:15.019Z,99383.03
2019-04-26T05:51:44.077Z,99379.77
2019-04-26T05:57:05.234Z,99383.66
2019-04-26T06:02:20.279Z,99387.45
2019-04-26T06:07:32.501Z,99399.02
2019-04-26T06:12:47.996Z,99390.98
2019-04-26T06:18:06.126Z,99399.34
2019-04-26T06:23:40.422Z,99410.72
2019-04-26T06:29:03.311Z,99428.63
2019-04-26T06:34:16.945Z,99424.38
2019-04-26T06:39:32.060Z,99439.36
2019-04-26T06:45:17.275Z,99443.96
2019-04-26T06:50:47.749Z,99449.89
2019-04-26T06:56:08.755Z,99453.48
2019-04-26T07:01:28.393Z,99456.27
2019-04-26T07:06:39.076Z,99456.38
2019-04-26T07:12:19.737Z,99456.38
2019-04-26T07:17:42.553Z,99459.24
2019-04-26T07:23:39.882Z,99453.89
2019-04-26T07:29:25.158Z,99448.88
2019-04-26T07:35:06.712Z,99449.83
2019-04-26T07:40:51.883Z,99449.22
2019-04-26T07:46:03.964Z,99454.66
2019-04-26T07:51:35.179Z,99451.98
2019-04-26T07:56:57.945Z,99448.14
2019-04-26T08:02:09.023Z,99451.08
2019-04-26T08:07:22.119Z,99455.75
2019-04-26T08:12:29.169Z,99464.00
2019-04-26T08:17:43.043Z,99474.03
2019-04-26T08:22:52.244Z,99478.55
2019-04-26T08:27:58.310Z,99482.03
2019-04-26T08:33:07.526Z,99472.83
2019-04-26T08:38:16.033Z,99488.91
2019-04-26T08:43:30.578Z,99487.84
2019-04-26T08:48:39.387Z,99486.02
2019-04-26T08:53:44.924Z,99480.70
2019-04-26T08:58:53.451Z,99483.74
2019-04-26T09:04:01.337Z,99482.68
2019-04-26T09:09:10.020Z,99480.60
2019-04-26T09:14:14.755Z,99483.03
2019-04-26T09:19:19.075Z,99478.91
2019-04-26T09:24:27.731Z,99470.03
2019-04-26T09:29:34.833Z,99470.52
2019-04-26T09:34:43.327Z,99475.19
2019-04-26T09:39:47.804Z,99483.74
2019-04-26T09:44:53.823Z,99479.86
2019-04-26T09:49:59.826Z,99485.22
2019-04-26T09:55:06.282Z,99480.23
2019-04-26T10:00:14.516Z,99472.97
2019-04-26T10:05:22.270Z,99487.61
2019-04-26T10:10:30.993Z,99489.44
2019-04-26T10:15:39.048Z,99471.39
2019-04-26T10:20:43.122Z,99474.60
2019-04-26T10:25:52.041Z,99465.48
2019-04-26T10:30:53.720Z,99460.70
2019-04-26T10:35:58.150Z,99457.11
2019-04-26T10:41:02.540Z,99468.58
2019-04-26T10:46:08.666Z,99462.72
2019-04-26T10:51:14.943Z,99472.56
2019-04-26T10:56:24.301Z,99468.92
2019-04-26T11:01:27.184Z,99466.38
2019-04-26T11:06:31.626Z,99469.39
2019-04-26T11:11:36.556Z,99467.91
2019-04-26T11:16:42.200Z,99470.16
2019-04-26T11:21:46.723Z,99465.41
2019-04-26T11:26:51.050Z,99450.34
2019-04-26T11:31:58.410Z,99447.34
2019-04-26T11:37:01.479Z,99433.44
2019-04-26T11:42:08.056Z,99432.19
2019-04-26T11:47:13.091Z,99421.40
2019-04-26T11:52:17.530Z,99437.06
2019-04-26T11:57:21.886Z,99438.45
2019-04-26T12:02:26.235Z,99427.89
2019-04-26T12:07:32.222Z,99427.89
2019-04-26T12:12:36.579Z,99419.32
2019-04-26T12:17:40.938Z,99423.91
2019-04-26T12:22:45.301Z,99416.59
2019-04-26T12:27:53.297Z,99407.87
2019-04-26T12:32:55.720Z,99400.70
2019-04-26T12:38:00.118Z,99413.93
2019-04-26T12:43:04.442Z,99409.53
2019-04-26T12:48:15.724Z,99410.60
2019-04-26T12:53:19.568Z,99433.32
2019-04-26T12:58:23.980Z,99451.97
2019-04-26T13:03:29.231Z,99453.20
2019-04-26T13:08:34.527Z,99446.38
2019-04-26T13:13:43.233Z,99442.38
2019-04-26T13:18:47.645Z,99452.63
2019-04-26T13:23:53.093Z,99451.76
2019-04-26T13:28:58.854Z,99458.84
2019-04-26T13:34:04.588Z,99453.91
2019-04-26T13:39:13.497Z,99446.86
2019-04-26T13:44:20.421Z,99448.52
2019-04-26T13:49:42.906Z,99445.89
2019-04-26T13:54:47.298Z,99453.69
2019-04-26T13:59:51.672Z,99448.55
2019-04-26T14:04:56.025Z,99455.65
2019-04-26T14:10:00.381Z,99458.53
2019-04-26T14:15:08.511Z,99446.63
2019-04-26T14:20:13.147Z,99436.39
2019-04-26T14:25:22.217Z,99443.83
2019-04-26T14:30:26.590Z,99447.34
2019-04-26T14:35:30.939Z,99452.63
2019-04-26T14:40:35.413Z,99452.41
2019-04-26T14:45:41.399Z,99454.20
2019-04-26T14:50:46.507Z,99449.34
2019-04-26T14:55:54.610Z,99446.80
2019-04-26T15:01:03.214Z,99444.14
2019-04-26T15:06:09.278Z,99444.63
2019-04-26T15:11:13.636Z,99433.73
2019-04-26T15:16:18.019Z,99441.25
2019-04-26T15:21:22.875Z,99443.11
2019-04-26T15:26:29.816Z,99456.27
2019-04-26T15:31:33.425Z,99462.83
2019-04-26T15:36:37.773Z,99471.41
2019-04-26T15:41:51.389Z,99478.08
2019-04-26T15:46:57.269Z,99474.31
2019-04-26T15:52:01.653Z,99470.89
2019-04-26T15:57:06.799Z,99475.70
2019-04-26T16:02:12.397Z,99478.47
2019-04-26T16:07:27.284Z,99480.40
2019-04-26T16:12:25.790Z,99480.91
2019-04-26T16:17:29.231Z,99497.83
2019-04-26T16:22:33.578Z,99499.49
2019-04-26T16:27:38.058Z,99500.80
2019-04-26T16:32:58.683Z,99534.47
2019-04-26T16:38:02.222Z,99528.40
2019-04-26T16:43:06.673Z,99514.80
2019-04-26T16:48:12.890Z,99499.59
2019-04-26T16:53:37.703Z,99495.38
2019-04-26T16:58:24.680Z,99504.82
2019-04-26T17:03:29.289Z,99524.81
2019-04-26T17:08:34.777Z,99541.41
2019-04-26T17:13:49.204Z,99547.80
2019-04-26T17:18:46.155Z,99546.89
2019-04-26T17:23:55.185Z,99564.73
2019-04-26T17:28:59.596Z,99585.44
2019-04-26T17:34:05.177Z,99607.22
2019-04-26T17:39:16.881Z,99643.18
2019-04-26T17:44:20.682Z,99662.23
2019-04-26T17:49:27.402Z,99672.28
2019-04-26T17:54:45.589Z,99667.45
2019-04-26T17:59:36.979Z,99635.41
2019-04-26T18:04:43.120Z,99654.42
2019-04-26T18:09:47.681Z,99662.36
2019-04-26T18:14:52.132Z,99688.63
2019-04-26T18:20:05.140Z,99720.28
2019-04-26T18:25:10.864Z,99731.61
2019-04-26T18:30:14.372Z,99716.16
2019-04-26T18:35:18.910Z,99707.97
2019-04-26T18:40:23.313Z,99768.88
2019-04-26T18:45:30.048Z,99768.88
2019-04-26T18:50:36.447Z,99754.12
2019-04-26T18:55:40.448Z,99786.29
2019-04-26T19:00:45.099Z,99795.92
2019-04-26T19:05:49.554Z,99798.06
2019-04-26T19:11:01.099Z,99810.94
2019-04-26T19:16:03.682Z,99810.94
2019-04-26T19:21:27.932Z,99844.42
2019-04-26T19:26:35.011Z,99872.09
2019-04-26T19:31:39.158Z,99872.33
2019-04-26T19:36:46.354Z,99877.66
2019-04-26T19:41:53.589Z,99865.56
2019-04-26T19:47:13.471Z,99883.34
2019-04-26T19:52:33.653Z,99891.57
2019-04-26T19:57:41.060Z,99910.99
2019-04-26T20:02:50.221Z,99958.19
2019-04-26T20:07:58.426Z,99971.13
2019-04-26T20:13:02.558Z,99973.36
2019-04-26T20:18:07.239Z,99971.67
2019-04-26T20:23:12.347Z,99977.13
2019-04-26T20:28:16.847Z,99998.31
2019-04-26T20:33:22.427Z,100004.33
2019-04-26T20:38:26.929Z,99998.63
2019-04-26T20:43:32.093Z,99969.31
2019-04-26T20:48:36.678Z,99986.19
2019-04-26T20:53:43.557Z,100023.09
2019-04-26T20:58:47.345Z,100029.15
2019-04-26T21:03:51.853Z,100020.20
2019-04-26T21:08:59.152Z,100015.23
2019-04-26T21:14:07.501Z,100010.16
2019-04-26T21:19:08.429Z,100026.73
2019-04-26T21:24:19.077Z,100034.90
2019-04-26T21:29:35.942Z,100041.19
2019-04-26T21:34:44.990Z,100047.08
2019-04-26T21:39:49.566Z,100064.45
2019-04-26T21:44:54.872Z,100063.56
2019-04-26T21:50:00.743Z,100057.30
2019-04-26T21:55:07.258Z,100037.67
2019-04-26T22:00:13.905Z,100027.86
2019-04-26T22:05:22.666Z,100040.48
2019-04-26T22:10:28.672Z,100039.66
2019-04-26T22:15:44.066Z,100044.84
2019-04-26T22:20:52.155Z,100046.69
2019-04-26T22:26:00.168Z,100039.42
2019-04-26T22:31:08.351Z,100040.55
2019-04-26T22:36:10.032Z,100038.18
2019-04-26T22:41:14.436Z,100029.41
2019-04-26T22:46:46.442Z,100025.26
2019-04-26T22:51:43.552Z,100016.08
2019-04-26T22:56:48.034Z,100003.67
2019-04-26T23:01:53.646Z,100021.18
2019-04-26T23:06:58.217Z,100027.70
2019-04-26T23:12:04.214Z,100034.59
2019-04-26T23:17:16.233Z,100037.00
2019-04-26T23:22:24.658Z,100036.63
2019-04-26T23:27:26.681Z,100036.06
2019-04-26T23:32:31.023Z,100048.82
2019-04-26T23:37:35.374Z,100046.55
2019-04-26T23:42:39.725Z,100047.85
2019-04-26T23:47:44.149Z,100036.30
2019-04-26T23:52:50.274Z,100042.92
2019-04-26T23:57:54.544Z,100043.87
